Aviation Digital Data Service (ADDS)

Output produced by METARs form (0052 UTC 23 November 2014)
found at http://www.aviationweather.gov/adds/metars/
 
KALB 222346Z 2300/2324 18009KT P6SM VCSH OVC040 
     TEMPO 2301/2305 4SM -RA BR BKN025 
     FM230500 19008KT P6SM VCSH OVC025 
     FM231400 20009KT P6SM SCT025 OVC040 
     FM231800 19008KT P6SM BKN040